| time (UTC) | temp C | wind direction | speed KPH | gust KPH | rain 1hr cm | rain 24hr cm | rain mn cm | humidity % | barometer mb |
| 20260507075943 | 11 | 331 | 0.0 | 1.6 | 0.15 | 0.25 | 0.18 | 91 | 1006.4 |
| 20260507075002 | 11 | 0.0 | 1.6 | 0.10 | 0.20 | 0.13 | 88 | 1006.5 | |
| 20260507073946 | 12 | 321 | 1.6 | 3.2 | 0.05 | 0.15 | 0.08 | 83 | 1006.5 |
| 20260507073005 | 12 | 343 | 1.6 | 3.2 | 0.00 | 0.10 | 0.03 | 83 | 1005.6 |
| 20260507071951 | 12 | 329 | 0.0 | 3.2 | 0.00 | 0.10 | 0.03 | 82 | 1005.4 |
| 20260507070937 | 12 | 320 | 1.6 | 3.2 | 0.00 | 0.10 | 0.03 | 83 | 1005.4 |
| 20260507065956 | 12 | 347 | 1.6 | 3.2 | 0.00 | 0.10 | 0.03 | 82 | 1005.2 |
| 20260507064940 | 12 | 330 | 1.6 | 3.2 | 0.00 | 0.10 | 0.03 | 83 | 1005.6 |
| 20260507063959 | 13 | 333 | 1.6 | 3.2 | 0.00 | 0.10 | 0.03 | 85 | 1005.6 |
| 20260507062943 | 13 | 320 | 1.6 | 1.6 | 0.00 | 0.10 | 0.03 | 86 | 1005.7 |
| 20260507062002 | 13 | 326 | 0.0 | 1.6 | 0.00 | 0.10 | 0.03 | 85 | 1005.3 |
| 20260507060947 | 13 | 346 | 1.6 | 3.2 | 0.00 | 0.10 | 0.03 | 86 | 1005.5 |
| 20260507060007 | 13 | 43 | 1.6 | 3.2 | 0.00 | 0.10 | 0.03 | 92 | 1005.8 |
| 20260507054951 | 13 | 303 | 1.6 | 3.2 | 0.00 | 0.10 | 0.03 | 93 | 1005.8 |
| 20260507053937 | 13 | 0.0 | 0.0 | 0.00 | 0.10 | 0.03 | 93 | 1005.9 | |
| 20260507052955 | 14 | 329 | 0.0 | 1.6 | 0.00 | 0.10 | 0.03 | 93 | 1005.9 |
| 20260507051940 | 14 | 322 | 1.6 | 1.6 | 0.00 | 0.10 | 0.03 | 94 | 1005.8 |
| 20260507050957 | 14 | 0.0 | 0.0 | 0.00 | 0.10 | 0.03 | 94 | 1005.8 | |
| 20260507045942 | 14 | 321 | 1.6 | 1.6 | 0.03 | 0.10 | 0.03 | 95 | 1005.9 |
| 20260507045041 | 15 | 312 | 1.6 | 3.2 | 0.03 | 0.10 | 0.03 | 95 | 1005.8 |
| 20260507043946 | 15 | 317 | 1.6 | 3.2 | 0.03 | 0.10 | 0.03 | 95 | 1005.8 |
| 20260507043005 | 15 | 327 | 0.0 | 1.6 | 0.03 | 0.10 | 0.03 | 95 | 1005.7 |
| 20260507041950 | 15 | 310 | 0.0 | 1.6 | 0.03 | 0.10 | 0.03 | 95 | 1005.7 |
| 20260507041027 | 15 | 314 | 0.0 | 1.6 | 0.03 | 0.10 | 0.03 | 94 | 1005.8 |
| 20260507035952 | 15 | 0.0 | 3.2 | 0.00 | 0.08 | 0.08 | 94 | 1005.9 | |
| 20260507035031 | 14 | 262 | 4.8 | 8.0 | 0.00 | 0.08 | 0.08 | 93 | 1006.0 |
| 20260507033957 | 14 | 293 | 3.2 | 4.8 | 0.00 | 0.08 | 0.08 | 94 | 1006.0 |
| 20260507033035 | 14 | 301 | 1.6 | 3.2 | 0.00 | 0.08 | 0.08 | 94 | 1005.9 |
| 20260507032020 | 14 | 317 | 1.6 | 3.2 | 0.00 | 0.08 | 0.08 | 94 | 1005.8 |
| 20260507030946 | 14 | 305 | 3.2 | 9.7 | 0.00 | 0.08 | 0.08 | 94 | 1005.6 |
| 20260507030005 | 13 | 288 | 1.6 | 3.2 | 0.00 | 0.08 | 0.08 | 94 | 1005.6 |
| 20260507024950 | 13 | 282 | 1.6 | 4.8 | 0.00 | 0.08 | 0.08 | 94 | 1005.4 |
| 20260507024028 | 13 | 302 | 1.6 | 4.8 | 0.00 | 0.08 | 0.08 | 94 | 1005.6 |
| 20260507022953 | 13 | 304 | 3.2 | 4.8 | 0.00 | 0.08 | 0.08 | 94 | 1005.6 |
| 20260507022011 | 13 | 234 | 1.6 | 4.8 | 0.00 | 0.08 | 0.08 | 95 | 1005.7 |
| 20260507021016 | 13 | 168 | 3.2 | 8.0 | 0.00 | 0.08 | 0.08 | 95 | 1005.8 |
| 20260507020035 | 13 | 307 | 1.6 | 4.8 | 0.00 | 0.08 | 0.08 | 95 | 1005.6 |
| 20260507015000 | 13 | 308 | 1.6 | 3.2 | 0.00 | 0.08 | 0.08 | 95 | 1005.8 |
| 20260507014019 | 13 | 281 | 3.2 | 4.8 | 0.00 | 0.08 | 0.08 | 95 | 1005.9 |
| 20260507013005 | 13 | 309 | 1.6 | 4.8 | 0.00 | 0.08 | 0.08 | 95 | 1006.2 |
| 20260507011949 | 13 | 288 | 1.6 | 3.2 | 0.00 | 0.08 | 0.08 | 95 | 1006.2 |
| 20260507011007 | 13 | 296 | 3.2 | 8.0 | 0.00 | 0.08 | 0.08 | 95 | 1006.2 |
| 20260507005952 | 13 | 296 | 1.6 | 4.8 | 0.00 | 0.08 | 0.08 | 95 | 1006.2 |
| 20260507005010 | 13 | 283 | 1.6 | 8.0 | 0.00 | 0.08 | 0.08 | 94 | 1006.3 |
| 20260507003956 | 13 | 311 | 1.6 | 3.2 | 0.00 | 0.08 | 0.08 | 94 | 1006.2 |
| 20260507003014 | 13 | 295 | 1.6 | 4.8 | 0.00 | 0.08 | 0.08 | 94 | 1006.0 |
| 20260507002020 | 13 | 285 | 4.8 | 9.7 | 0.00 | 0.08 | 0.08 | 94 | 1005.9 |
| 20260507001020 | 13 | 324 | 0.0 | 3.2 | 0.00 | 0.08 | 0.08 | 94 | 1006.1 |
| 20260507000005 | 13 | 274 | 4.8 | 4.8 | 0.00 | 0.08 | 0.08 | 94 | 1005.9 |
| 20260506235023 | 13 | 271 | 3.2 | 11.3 | 0.00 | 0.08 | 0.08 | 94 | 1006.0 |
| 20260506234009 | 13 | 265 | 4.8 | 8.0 | 0.00 | 0.08 | 0.08 | 94 | 1005.7 |
| 20260506232955 | 13 | 259 | 3.2 | 11.3 | 0.00 | 0.08 | 0.08 | 94 | 1005.7 |
| 20260506232013 | 13 | 322 | 1.6 | 4.8 | 0.00 | 0.08 | 0.08 | 94 | 1005.9 |
| 20260506230958 | 13 | 275 | 1.6 | 8.0 | 0.00 | 0.08 | 0.08 | 94 | 1006.1 |
| 20260506230015 | 13 | 307 | 3.2 | 4.8 | 0.00 | 0.08 | 0.08 | 94 | 1005.9 |
| 20260506225000 | 13 | 295 | 3.2 | 4.8 | 0.03 | 0.08 | 0.08 | 94 | 1005.9 |
| 20260506224019 | 13 | 275 | 3.2 | 11.3 | 0.03 | 0.08 | 0.08 | 95 | 1005.9 |
| 20260506223005 | 13 | 307 | 4.8 | 9.7 | 0.03 | 0.08 | 0.08 | 94 | 1006.0 |
| 20260506222024 | 13 | 307 | 4.8 | 4.8 | 0.03 | 0.08 | 0.08 | 94 | 1006.2 |
| 20260506221010 | 14 | 310 | 1.6 | 4.8 | 0.03 | 0.08 | 0.08 | 93 | 1006.1 |
| 20260506220028 | 14 | 283 | 3.2 | 11.3 | 0.05 | 0.08 | 0.08 | 93 | 1006.3 |
| 20260506215014 | 15 | 287 | 3.2 | 8.0 | 0.05 | 0.05 | 0.05 | 92 | 1006.4 |
| 20260506214019 | 15 | 282 | 3.2 | 9.7 | 0.05 | 0.05 | 0.05 | 92 | 1006.5 |
| 20260506213018 | 15 | 295 | 3.2 | 8.0 | 0.05 | 0.05 | 0.05 | 92 | 1006.5 |
| 20260506212024 | 15 | 305 | 4.8 | 11.3 | 0.05 | 0.05 | 0.05 | 92 | 1006.7 |
| 20260506211042 | 15 | 302 | 1.6 | 8.0 | 0.05 | 0.05 | 0.05 | 92 | 1006.6 |
| 20260506210007 | 15 | 305 | 1.6 | 3.2 | 0.03 | 0.03 | 0.03 | 91 | 1006.6 |
| 20260506205026 | 15 | 294 | 3.2 | 8.0 | 0.00 | 0.00 | 0.00 | 89 | 1006.6 |
| 20260506204012 | 15 | 283 | 4.8 | 9.7 | 0.00 | 0.00 | 0.00 | 89 | 1006.9 |
| 20260506202923 | 16 | 291 | 3.2 | 11.3 | 0.00 | 0.00 | 0.00 | 88 | 1006.7 |
| 20260506201929 | 16 | 270 | 1.6 | 12.9 | 0.00 | 0.00 | 0.00 | 87 | 1006.7 |
| 20260506200927 | 16 | 300 | 3.2 | 8.0 | 0.00 | 0.00 | 0.00 | 86 | 1006.8 |
| 20260506195933 | 16 | 271 | 4.8 | 4.8 | 0.00 | 0.00 | 0.00 | 85 | 1007.0 |
| 20260506194932 | 17 | 275 | 6.4 | 14.5 | 0.00 | 0.00 | 0.00 | 82 | 1006.9 |
| 20260506193936 | 17 | 288 | 3.2 | 9.7 | 0.00 | 0.00 | 0.00 | 80 | 1007.1 |
| 20260506192934 | 17 | 303 | 3.2 | 4.8 | 0.00 | 0.00 | 0.00 | 79 | 1007.0 |
| 20260506191917 | 18 | 247 | 3.2 | 11.3 | 0.00 | 0.00 | 0.00 | 76 | 1007.0 |
| 20260506190936 | 18 | 288 | 6.4 | 9.7 | 0.00 | 0.00 | 0.00 | 73 | 1007.2 |
| 20260506185922 | 18 | 282 | 4.8 | 16.1 | 0.00 | 0.00 | 0.00 | 72 | 1007.1 |
| 20260506184927 | 18 | 277 | 4.8 | 12.9 | 0.00 | 0.00 | 0.00 | 72 | 1007.2 |
| 20260506183926 | 18 | 283 | 3.2 | 11.3 | 0.00 | 0.00 | 0.00 | 71 | 1007.1 |
| 20260506182932 | 19 | 274 | 6.4 | 12.9 | 0.00 | 0.00 | 0.00 | 71 | 1007.2 |
| 20260506181950 | 19 | 282 | 6.4 | 9.7 | 0.00 | 0.00 | 0.00 | 70 | 1007.2 |
| 20260506180934 | 19 | 275 | 8.0 | 12.9 | 0.00 | 0.00 | 0.00 | 71 | 1007.3 |
| 20260506175932 | 20 | 283 | 1.6 | 9.7 | 0.00 | 0.00 | 0.00 | 70 | 1007.6 |
| 20260506174937 | 20 | 278 | 6.4 | 12.9 | 0.00 | 0.00 | 0.00 | 68 | 1007.6 |
| 20260506173956 | 20 | 274 | 4.8 | 17.7 | 0.00 | 0.00 | 0.00 | 66 | 1007.9 |
| 20260506172921 | 20 | 274 | 8.0 | 16.1 | 0.00 | 0.00 | 0.00 | 67 | 1008.0 |
| 20260506171940 | 20 | 293 | 4.8 | 9.7 | 0.00 | 0.00 | 0.00 | 69 | 1007.7 |
| 20260506170925 | 20 | 279 | 4.8 | 11.3 | 0.00 | 0.00 | 0.00 | 69 | 1007.6 |
| 20260506165909 | 19 | 290 | 4.8 | 12.9 | 0.00 | 0.00 | 0.00 | 70 | 1008.0 |
| 20260506164926 | 20 | 305 | 4.8 | 12.9 | 0.00 | 0.00 | 0.00 | 69 | 1008.2 |
| 20260506163912 | 20 | 280 | 6.4 | 14.5 | 0.00 | 0.00 | 0.00 | 69 | 1008.4 |
| 20260506162930 | 19 | 238 | 4.8 | 11.3 | 0.00 | 0.00 | 0.00 | 70 | 1008.4 |
| 20260506161915 | 20 | 280 | 8.0 | 12.9 | 0.00 | 0.00 | 0.00 | 69 | 1008.8 |
| 20260506160933 | 20 | 279 | 6.4 | 12.9 | 0.00 | 0.00 | 0.00 | 68 | 1008.6 |
| 20260506155917 | 20 | 302 | 3.2 | 9.7 | 0.00 | 0.00 | 0.00 | 68 | 1008.8 |
| 20260506154936 | 20 | 255 | 6.4 | 12.9 | 0.00 | 0.00 | 0.00 | 68 | 1008.9 |
| 20260506153920 | 20 | 288 | 4.8 | 11.3 | 0.00 | 0.00 | 0.00 | 68 | 1009.1 |
| 20260506152938 | 20 | 270 | 4.8 | 9.7 | 0.00 | 0.00 | 0.00 | 68 | 1009.3 |
| 20260506151923 | 20 | 291 | 4.8 | 9.7 | 0.00 | 0.00 | 0.00 | 69 | 1009.4 |
| 20260506151000 | 20 | 261 | 9.7 | 17.7 | 0.00 | 0.00 | 0.00 | 68 | 1009.4 |
| 20260506145923 | 20 | 284 | 6.4 | 12.9 | 0.00 | 0.00 | 0.00 | 68 | 1009.4 |
| 20260506144941 | 20 | 277 | 6.4 | 14.5 | 0.00 | 0.00 | 0.00 | 69 | 1009.3 |
| 20260506143926 | 20 | 289 | 6.4 | 9.7 | 0.00 | 0.00 | 0.00 | 69 | 1009.3 |
| 20260506142944 | 20 | 283 | 6.4 | 11.3 | 0.00 | 0.00 | 0.00 | 70 | 1009.2 |
| 20260506141930 | 19 | 302 | 3.2 | 12.9 | 0.00 | 0.00 | 0.00 | 71 | 1009.2 |
| 20260506140947 | 18 | 214 | 3.2 | 11.3 | 0.00 | 0.00 | 0.00 | 72 | 1009.3 |
| 20260506135932 | 18 | 294 | 3.2 | 9.7 | 0.00 | 0.00 | 0.00 | 74 | 1009.2 |
| 20260506134918 | 18 | 270 | 3.2 | 8.0 | 0.00 | 0.00 | 0.00 | 74 | 1009.2 |
| 20260506133937 | 18 | 245 | 3.2 | 11.3 | 0.00 | 0.00 | 0.00 | 74 | 1009.7 |
| 20260506132922 | 18 | 298 | 4.8 | 8.0 | 0.00 | 0.00 | 0.00 | 75 | 1009.7 |
| 20260506131941 | 17 | 296 | 3.2 | 8.0 | 0.00 | 0.00 | 0.00 | 77 | 1009.8 |
| 20260506130927 | 17 | 280 | 3.2 | 8.0 | 0.00 | 0.00 | 0.00 | 79 | 1009.7 |
| 20260506125945 | 16 | 276 | 4.8 | 11.3 | 0.00 | 0.00 | 0.00 | 80 | 1009.8 |
| 20260506124929 | 16 | 293 | 4.8 | 9.7 | 0.00 | 0.00 | 0.00 | 81 | 1009.9 |
| 20260506123947 | 16 | 306 | 4.8 | 8.0 | 0.00 | 0.00 | 0.00 | 81 | 1009.9 |
| 20260506122953 | 16 | 291 | 8.0 | 12.9 | 0.00 | 0.00 | 0.00 | 82 | 1009.8 |
| 20260506121951 | 15 | 306 | 3.2 | 4.8 | 0.00 | 0.00 | 0.00 | 83 | 1009.6 |
| 20260506120935 | 15 | 299 | 4.8 | 9.7 | 0.00 | 0.00 | 0.00 | 84 | 1010.0 |
| 20260506115953 | 15 | 296 | 3.2 | 8.0 | 0.00 | 0.00 | 0.00 | 84 | 1010.2 |
| 20260506115045 | 15 | 276 | 4.8 | 9.7 | 0.00 | 0.00 | 0.00 | 84 | 1010.2 |
| 20260506113954 | 15 | 283 | 6.4 | 12.9 | 0.00 | 0.00 | 0.00 | 84 | 1010.3 |
| 20260506112959 | 15 | 281 | 4.8 | 8.0 | 0.00 | 0.00 | 0.00 | 85 | 1010.5 |
| 20260506111925 | 15 | 286 | 3.2 | 8.0 | 0.00 | 0.00 | 0.00 | 86 | 1010.2 |
| 20260506110943 | 14 | 316 | 1.6 | 8.0 | 0.00 | 0.00 | 0.00 | 87 | 1010.3 |
| 20260506105929 | 14 | 285 | 3.2 | 8.0 | 0.00 | 0.00 | 0.00 | 87 | 1010.3 |
| 20260506105007 | 14 | 294 | 4.8 | 8.0 | 0.00 | 0.00 | 0.00 | 87 | 1010.3 |
| 20260506103933 | 14 | 293 | 3.2 | 8.0 | 0.00 | 0.00 | 0.00 | 87 | 1010.4 |
| 20260506102952 | 14 | 285 | 1.6 | 4.8 | 0.00 | 0.00 | 0.00 | 86 | 1010.2 |
| 20260506101938 | 14 | 260 | 3.2 | 4.8 | 0.00 | 0.00 | 0.00 | 86 | 1010.3 |
| 20260506100957 | 14 | 283 | 4.8 | 9.7 | 0.00 | 0.00 | 0.00 | 86 | 1010.1 |
| 20260506095942 | 14 | 293 | 3.2 | 4.8 | 0.00 | 0.00 | 0.00 | 86 | 1010.0 |
| 20260506094927 | 14 | 309 | 1.6 | 8.0 | 0.00 | 0.00 | 0.00 | 86 | 1010.0 |
| 20260506094006 | 14 | 297 | 3.2 | 4.8 | 0.00 | 0.00 | 0.00 | 85 | 1010.0 |
| 20260506092931 | 14 | 277 | 4.8 | 9.7 | 0.00 | 0.00 | 0.00 | 86 | 1009.9 |
| 20260506091949 | 14 | 296 | 3.2 | 4.8 | 0.00 | 0.00 | 0.00 | 86 | 1009.9 |
| 20260506091035 | 14 | 286 | 1.6 | 4.8 | 0.00 | 0.00 | 0.00 | 85 | 1010.1 |
| 20260506090014 | 15 | 308 | 3.2 | 4.8 | 0.00 | 0.00 | 0.00 | 85 | 1010.3 |
| 20260506085000 | 15 | 317 | 1.6 | 8.0 | 0.00 | 0.00 | 0.00 | 85 | 1010.2 |
| 20260506084018 | 15 | 284 | 1.6 | 4.8 | 0.00 | 0.00 | 0.00 | 84 | 1010.3 |
| 20260506082943 | 15 | 245 | 4.8 | 9.7 | 0.00 | 0.00 | 0.00 | 84 | 1010.3 |
| 20260506082001 | 15 | 307 | 1.6 | 8.0 | 0.00 | 0.00 | 0.00 | 83 | 1010.2 |
| 20260506081026 | 15 | 298 | 1.6 | 4.8 | 0.00 | 0.00 | 0.00 | 83 | 1010.1 |